Monticello, KY

3:29 AM EDT on July 13, 2014 (GMT -0400)
Powell (KDVK) Elev 1024 ft | 37.58 °N, 84.77 °W | Change Station

Current weather conditions updated 14 minutes ago

Clear
Clear
72 °F
Feels Like 72 °F
N
4
Wind Variable Wind from SW

Today is forecast to be nearly the same temperature as yesterday.

Today
High -- | Low -- °F
--% Chance of Precip.
Yesterday
High -- | Low -- °F
Precip. -- in
6:30 AM 8:59 PM
Full, 99% visible
Pressure 30.09 in
Visibility 10.0 miles
Clouds Clear
Dew Point 64 °F
Humidity 78%
Rainfall 0.00 in
Snow Depth Not available.
UV 0 out of 12
Pollen 3.20 out of 12
Air Quality Not available.
Flu Activity Sporadic
METAR KDVK 130715Z AUTO 22003KT 10SM CLR 22/18 A3009 RMK AO2

More Conditions Fewer Conditions

Pressure 30.09 in
Visibility 10.0 miles
Clouds Clear
Dew Point 64 °F
Humidity 78%
Rainfall 0.00 in
Snow Depth Not available.
UV 0 out of 12
Pollen 3.20 out of 12
Air Quality Not available.
Flu Activity Sporadic
METAR KDVK 130715Z AUTO 22003KT 10SM CLR 22/18 A3009 RMK AO2

More Conditions Fewer Conditions

10-Day Weather Forecast

Almanac

Astronomy

Jul. 13, 2014 Rise Set
Actual Time 6:30 AM EDT 8:59 PM EDT
Civil Twilight 6:00 AM EDT 9:29 PM EDT
Nautical Twilight 5:23 AM EDT 10:06 PM EDT
Astronomical Twilight 4:42 AM EDT 10:47 PM EDT
Moon 9:51 PM EDT 7:56 AM EDT
Length of Visible Light 15h 29m
Length of Day
14h 28m
Tomorrow will be 1m 7s shorter.
Full, 99% of the Moon is Illuminated
Today
Full
Jul 18
Last Quarter
Jul 26
New
Aug 3
First Quarter
Aug 10
Full

Today's Extremes

State Highs State Lows

Community

WunderPhotos

Upload Photos

1,733,123 photos uploaded!

Nearby

Snow Depth

Station Depth Elevation
No new snow has been reported.

Earthquake Activity

City Distance Mag. Time & Date
No recent earthquake activity has been reported nearby.
Minimum magnitude displayed is 2.5.

Coastal Water Temperatures

Place Temperature
No Stations Reporting

Nearby Weather Stations

Station Location Temp. Heat Index Dew Point Humidity Wind Precip. Elev Updated Type
Colonial Estates, Monticello, KY 71.2 °F 71 °F 65 °F 81% North  at  0.0 mph 0.00 in / hr 1004 ft 3:25 AM EDT Normal
Clover Pointe, Somerset, KY 74.7 °F 75 °F 67 °F 78% East  at  0.7 mph 0.00 in / hr 991 ft 3:29 AM EDT Rapid Fire
Balcony Bend, Jamestown, KY 72.5 °F 71 °F 68 °F 85% East  at  0.0 mph 0.00 in / hr 817 ft 2:25 AM CDT Normal
Burnside, KY 73.2 °F 77 °F 43 °F 34% North  at  0.0 mph 0.00 in / hr 1200 ft 3:29 AM EDT Rapid Fire
RAWS SOMERSET KY, Ferguson, KY 71 °F 71 °F 66 °F 83% North  at  0 mph 0.00 in / hr 920 ft 3:01 AM EDT MADIS
RMR - Somerset, Ferguson, KY 72.3 °F 71 °F 68 °F 85% NNE  at  0.0 mph 0.00 in / hr 909 ft 3:21 AM EDT Normal
HALLS BACKYARD WEATHER, SCIENCE HILL, KY 70.8 °F 71 °F 65 °F 82% ESE  at  0.0 mph 0.00 in / hr 1076 ft 3:28 AM EDT Normal

Show More Stations Show Fewer Stations